createdAt,value
2022-12-28T00:01:25.747Z,5.3
2022-12-28T00:06:27.908Z,4.9
2022-12-28T00:11:31.996Z,5.3
2022-12-28T00:16:34.706Z,5.3
2022-12-28T00:21:37.196Z,5.5
2022-12-28T00:26:39.351Z,5.6
2022-12-28T00:31:41.421Z,5.1
2022-12-28T00:37:13.481Z,4.7
2022-12-28T00:41:46.289Z,4.5
2022-12-28T00:46:48.837Z,4.4
2022-12-28T00:51:51.220Z,4.7
2022-12-28T00:56:54.244Z,4
2022-12-28T01:01:56.708Z,4.7
2022-12-28T01:06:59.699Z,4.4
2022-12-28T01:12:01.745Z,4.2
2022-12-28T01:17:04.828Z,4.4
2022-12-28T01:22:07.434Z,4.6
2022-12-28T01:27:09.461Z,4.1
2022-12-28T01:32:11.816Z,6.8
2022-12-28T01:37:12.188Z,4.4
2022-12-28T01:42:14.227Z,4.5
2022-12-28T01:47:16.263Z,4.5
2022-12-28T01:52:19.873Z,4.3
2022-12-28T01:57:22.393Z,4.3
2022-12-28T02:02:24.848Z,4.1
2022-12-28T02:07:27.584Z,3.9
2022-12-28T02:12:29.783Z,4.3
2022-12-28T02:17:34.471Z,3.9
2022-12-28T02:22:36.877Z,4.1
2022-12-28T02:27:39.228Z,4.1
2022-12-28T02:32:41.500Z,3.9
2022-12-28T02:37:43.785Z,4.3
2022-12-28T02:42:46.051Z,4.2
2022-12-28T02:47:48.174Z,4.2
2022-12-28T02:52:50.365Z,4.3
2022-12-28T02:57:52.439Z,4.5
2022-12-28T03:02:54.611Z,4.5
2022-12-28T03:07:57.108Z,4.8
2022-12-28T03:12:59.173Z,5
2022-12-28T03:18:01.403Z,5.4
2022-12-28T03:23:03.521Z,4.9
2022-12-28T03:28:05.521Z,5.4
2022-12-28T03:34:09.521Z,5.5
2022-12-28T03:39:11.770Z,4.9
2022-12-28T03:44:16.365Z,4.6
2022-12-28T03:49:18.793Z,5
2022-12-28T03:54:20.816Z,4.8
2022-12-28T03:59:22.849Z,5.2
2022-12-28T04:04:24.951Z,4.9
2022-12-28T04:09:27.080Z,4.4
2022-12-28T04:14:29.055Z,4
2022-12-28T04:19:31.262Z,4.1
2022-12-28T04:24:33.923Z,4
2022-12-28T04:29:36.348Z,4
2022-12-28T04:34:48.586Z,4.4
2022-12-28T04:39:57.611Z,4.3
2022-12-28T04:44:49.823Z,4.7
2022-12-28T04:49:52.395Z,4.3
2022-12-28T04:54:54.607Z,4.6
2022-12-28T04:59:56.635Z,4.2
2022-12-28T05:04:58.980Z,4.4
2022-12-28T05:10:02.825Z,4.3
2022-12-28T05:16:16.594Z,4.9
2022-12-28T05:21:19.320Z,4.4
2022-12-28T05:26:21.407Z,4.2
2022-12-28T05:31:23.533Z,3.9
2022-12-28T05:36:29.909Z,4.2
2022-12-28T05:41:32.736Z,4.4
2022-12-28T05:46:34.909Z,4.7
2022-12-28T05:51:40.388Z,5
2022-12-28T05:56:42.578Z,4.5
2022-12-28T06:01:44.940Z,4.9
2022-12-28T06:06:47.711Z,5.3
2022-12-28T06:11:50.941Z,5.5
2022-12-28T06:16:53.311Z,5.6
2022-12-28T06:21:55.452Z,6.7
2022-12-28T06:26:57.413Z,5.6
2022-12-28T06:32:00.787Z,5.7
2022-12-28T06:37:03.118Z,5.5
2022-12-28T06:42:05.154Z,5.6
2022-12-28T06:47:07.240Z,6.1
2022-12-28T06:52:09.560Z,6.4
2022-12-28T06:57:12.059Z,6.1
2022-12-28T07:02:14.921Z,5.7
2022-12-28T07:07:17.907Z,5.6
2022-12-28T07:12:19.966Z,6.1
2022-12-28T07:17:22.171Z,7
2022-12-28T07:22:26.498Z,6.5
2022-12-28T07:27:28.539Z,7.9
2022-12-28T07:32:30.552Z,7.2
2022-12-28T07:37:33.007Z,5.5
2022-12-28T07:42:35.124Z,26.3
2022-12-28T07:47:37.178Z,7.7
2022-12-28T07:52:39.813Z,16
2022-12-28T07:57:42.015Z,22.8
2022-12-28T08:02:44.011Z,7.2
2022-12-28T08:07:46.803Z,6.2
2022-12-28T08:12:49.363Z,6
2022-12-28T08:17:51.526Z,5.5
2022-12-28T08:22:54.021Z,5.6
2022-12-28T08:27:57.173Z,7
2022-12-28T08:32:59.465Z,8.8
2022-12-28T08:38:01.868Z,21.4
2022-12-28T08:43:04.194Z,8.7
2022-12-28T08:48:06.108Z,8.6
2022-12-28T08:53:08.114Z,7.6
2022-12-28T08:58:10.374Z,7.5
2022-12-28T09:03:12.545Z,6.7
2022-12-28T09:08:15.639Z,6.6
2022-12-28T09:13:17.732Z,7
2022-12-28T09:18:19.725Z,6.4
2022-12-28T09:23:21.870Z,6.3
2022-12-28T09:28:23.890Z,7.6
2022-12-28T09:33:26.065Z,7.1
2022-12-28T09:38:30.000Z,9.2
2022-12-28T09:43:32.398Z,5.5
2022-12-28T09:48:34.812Z,5.2
2022-12-28T09:53:37.237Z,4.7
2022-12-28T09:58:41.967Z,5.3
2022-12-28T10:03:39.447Z,6.3
2022-12-28T10:08:41.792Z,5.8
2022-12-28T10:13:56.376Z,6.7
2022-12-28T10:18:48.886Z,5.6
2022-12-28T10:24:31.998Z,4.9
2022-12-28T10:28:54.742Z,4.5
2022-12-28T10:33:56.787Z,3.8
2022-12-28T10:38:58.812Z,12.2
2022-12-28T10:44:39.966Z,2.3
2022-12-28T10:49:04.133Z,3.8
2022-12-28T10:54:05.933Z,3.5
2022-12-28T10:59:08.968Z,4.3
2022-12-28T11:04:11.418Z,4.6
2022-12-28T11:09:14.600Z,4.9
2022-12-28T11:14:17.500Z,4.2
2022-12-28T11:19:19.952Z,3.3
2022-12-28T11:24:22.072Z,3.1
2022-12-28T11:29:24.771Z,2.2
2022-12-28T11:34:27.385Z,2.3
2022-12-28T11:39:29.957Z,2.2
2022-12-28T11:44:32.664Z,2.3
2022-12-28T11:49:34.928Z,2.1
2022-12-28T11:54:37.392Z,2.1
2022-12-28T11:59:40.160Z,4.6
2022-12-28T12:04:43.291Z,2.2
2022-12-28T12:09:45.461Z,1.9
2022-12-28T12:14:47.617Z,1.5
2022-12-28T12:19:49.576Z,2.4
2022-12-28T12:24:51.771Z,1.9
2022-12-28T12:29:54.429Z,2
2022-12-28T12:34:56.748Z,1.8
2022-12-28T12:39:58.892Z,1.5
2022-12-28T12:45:02.616Z,1.8
2022-12-28T12:50:05.301Z,2
2022-12-28T12:55:07.338Z,2
2022-12-28T13:00:09.348Z,1.8
2022-12-28T13:05:11.440Z,1.9
2022-12-28T13:10:13.803Z,1.9
2022-12-28T13:15:16.103Z,2.1
2022-12-28T13:20:18.174Z,1.9
2022-12-28T13:25:20.444Z,1.9
2022-12-28T13:30:22.524Z,1.9
2022-12-28T13:35:24.860Z,1.7
2022-12-28T13:40:27.092Z,1.9
2022-12-28T13:45:29.224Z,2.1
2022-12-28T13:50:31.456Z,2.6
2022-12-28T13:55:33.685Z,2.6
2022-12-28T14:00:35.861Z,2.9
2022-12-28T14:05:37.938Z,2.8
2022-12-28T14:10:40.222Z,2.6
2022-12-28T14:15:43.825Z,2.9
2022-12-28T14:20:46.625Z,2.5
2022-12-28T14:25:49.078Z,2.3
2022-12-28T14:30:51.185Z,2.1
2022-12-28T14:35:53.757Z,2.7
2022-12-28T14:40:55.978Z,2.9
2022-12-28T15:17:19.308Z,4.7
2022-12-28T15:22:21.668Z,4.8
2022-12-28T15:27:23.819Z,4.5
2022-12-28T15:32:25.960Z,5.2
2022-12-28T15:37:28.187Z,5.5
2022-12-28T15:42:40.031Z,6
2022-12-28T15:47:32.728Z,6.6
2022-12-28T15:52:34.846Z,7.4
2022-12-28T15:57:36.957Z,7.3
2022-12-28T16:02:39.848Z,7
2022-12-28T16:07:42.731Z,6.3
2022-12-28T16:12:45.272Z,6.1
2022-12-28T16:17:57.850Z,6.1
2022-12-28T16:22:50.291Z,5.4
2022-12-28T16:27:52.466Z,5.6
2022-12-28T16:32:54.572Z,5.7
2022-12-28T16:37:56.952Z,6.7
2022-12-28T16:42:59.439Z,7.4
2022-12-28T16:48:01.527Z,7.5
2022-12-28T16:53:03.787Z,7.5
2022-12-28T16:58:05.926Z,9
2022-12-28T17:03:08.252Z,8.6
2022-12-28T17:08:10.676Z,8.5
2022-12-28T17:13:12.905Z,8.4
2022-12-28T17:18:15.009Z,7.9
2022-12-28T17:23:17.337Z,8
2022-12-28T17:28:19.473Z,8.1
2022-12-28T17:33:21.630Z,7.1
2022-12-28T17:38:23.805Z,7.2
2022-12-28T17:43:26.091Z,7.5
2022-12-28T17:48:28.116Z,8.2
2022-12-28T17:53:30.104Z,7.6
2022-12-28T17:58:32.149Z,8.8
2022-12-28T18:03:35.226Z,8.7
2022-12-28T18:08:37.653Z,8.7
2022-12-28T18:13:39.713Z,8.3
2022-12-28T18:18:41.884Z,7.6
2022-12-28T18:23:44.086Z,8
2022-12-28T18:28:49.207Z,8.7
2022-12-28T18:33:51.446Z,8.5
2022-12-28T18:38:53.903Z,8.3
2022-12-28T18:43:56.521Z,8.1
2022-12-28T18:48:58.601Z,7.5
2022-12-28T18:54:00.960Z,7.8
2022-12-28T18:59:03.121Z,8.2
2022-12-28T19:04:05.731Z,8.5
2022-12-28T19:09:08.988Z,13.4
2022-12-28T19:14:09.402Z,9.9
2022-12-28T19:19:11.417Z,10.5
2022-12-28T19:24:13.616Z,11.5
2022-12-28T19:29:16.098Z,12.1
2022-12-28T19:34:18.133Z,13.8
2022-12-28T19:39:20.307Z,13.2
2022-12-28T19:44:22.649Z,13.1
2022-12-28T19:49:26.791Z,13.1
2022-12-28T19:54:28.995Z,12.4
2022-12-28T19:59:31.007Z,11.2
2022-12-28T20:04:34.204Z,11.4
2022-12-28T20:09:36.836Z,11.5
2022-12-28T20:14:38.883Z,10.8
2022-12-28T20:19:41.385Z,12
2022-12-28T20:24:43.845Z,11.5
2022-12-28T20:29:46.007Z,11.2
2022-12-28T20:34:48.052Z,10.7
2022-12-28T20:39:50.115Z,11.2
2022-12-28T20:44:52.344Z,10.8
2022-12-28T20:49:54.430Z,10.8
2022-12-28T20:54:56.580Z,11
2022-12-28T20:59:58.618Z,11.7
2022-12-28T21:05:01.051Z,10.8
2022-12-28T21:10:03.428Z,11
2022-12-28T21:15:05.542Z,11.5
2022-12-28T21:20:07.668Z,12.1
2022-12-28T21:25:09.938Z,11.8
2022-12-28T21:30:12.136Z,12.8
2022-12-28T21:35:14.324Z,12.9
2022-12-28T21:40:16.428Z,12.2
2022-12-28T21:45:19.010Z,12.2
2022-12-28T21:50:21.397Z,12.8
2022-12-28T21:55:23.582Z,13.6
2022-12-28T22:00:25.795Z,14.1
2022-12-28T22:05:27.976Z,13.9
2022-12-28T22:10:30.077Z,13.6
2022-12-28T22:15:32.431Z,13.9
2022-12-28T22:20:34.866Z,14.6
2022-12-28T22:25:36.919Z,14
2022-12-28T22:30:39.005Z,13.8
2022-12-28T22:35:41.062Z,14.2
2022-12-28T22:40:43.330Z,13.6
2022-12-28T22:45:45.847Z,14.1
2022-12-28T22:50:48.027Z,16.2
2022-12-28T22:55:50.039Z,16
2022-12-28T23:00:52.154Z,14.9
2022-12-28T23:05:54.555Z,15.1
2022-12-28T23:10:56.891Z,15.1
2022-12-28T23:15:58.935Z,14.9
2022-12-28T23:21:01.289Z,14.8
2022-12-28T23:26:03.494Z,14.3
2022-12-28T23:31:05.959Z,14.4
2022-12-28T23:36:08.623Z,15.6
2022-12-28T23:41:10.928Z,15.6
2022-12-28T23:46:13.186Z,15.8
2022-12-28T23:51:15.453Z,16.2
2022-12-28T23:56:17.612Z,15.5
